Time;durP1;ratioP1;P1;durP2;ratioP2;P2;SDS_P1;SDS_P2;PMS_P1;PMS_P2;Temp;Humidity;BMP_temperature;BMP_pressure;BME280_temperature;BME280_humidity;BME280_pressure;Samples;Min_cycle;Max_cycle;Signal;HPM_P1;HPM_P2
2022/07/11 00:01:39;;;;;;;2.97;1.77;;;18.80;42.70;;;;;;20587;6920;118399;-85
2022/07/11 00:04:05;;;;;;;2.87;2.00;;;18.70;42.90;;;;;;20338;6920;310997;-86
2022/07/11 00:06:31;;;;;;;2.40;1.60;;;18.90;42.70;;;;;;20344;6920;324412;-86
2022/07/11 00:08:56;;;;;;;1.80;1.70;;;19.30;42.40;;;;;;20570;6920;120033;-87
2022/07/11 00:11:22;;;;;;;1.80;1.67;;;19.20;42.20;;;;;;20578;6920;116838;-85
2022/07/11 00:13:48;;;;;;;2.47;1.70;;;18.90;42.40;;;;;;20569;6920;118685;-86
2022/07/11 00:16:13;;;;;;;2.40;1.63;;;18.70;42.70;;;;;;20568;6920;117266;-86
2022/07/11 00:18:39;;;;;;;2.70;1.50;;;18.60;43.10;;;;;;20571;6920;118227;-86
2022/07/11 00:21:04;;;;;;;1.92;1.50;;;18.50;43.30;;;;;;20553;6920;117163;-86
2022/07/11 00:23:30;;;;;;;1.97;1.43;;;18.40;43.40;;;;;;20317;6920;280172;-86
2022/07/11 00:25:56;;;;;;;2.15;1.70;;;18.70;44.00;;;;;;20313;6919;281500;-88
2022/07/11 00:28:21;;;;;;;1.83;1.70;;;19.10;42.80;;;;;;20304;6919;295053;-86
2022/07/11 00:30:47;;;;;;;1.60;1.50;;;19.50;42.20;;;;;;20518;6920;120924;-86
2022/07/11 00:33:13;;;;;;;1.67;1.50;;;19.50;42.70;;;;;;20311;6920;302882;-85
2022/07/11 00:35:39;;;;;;;2.20;1.70;;;19.50;42.10;;;;;;20522;6920;118156;-86
2022/07/11 00:38:04;;;;;;;3.90;1.87;;;19.50;42.20;;;;;;20507;6920;118855;-86
2022/07/11 00:40:30;;;;;;;1.98;1.55;;;19.00;42.70;;;;;;20527;6920;117866;-86
2022/07/11 00:42:56;;;;;;;2.55;1.58;;;18.90;42.50;;;;;;20298;6920;340015;-86
2022/07/11 00:45:22;;;;;;;2.37;1.60;;;19.10;43.30;;;;;;20310;6920;327220;-86
2022/07/11 00:47:47;;;;;;;1.40;1.30;;;19.50;42.90;;;;;;20522;6920;118593;-86
2022/07/11 00:50:13;;;;;;;1.85;1.45;;;19.20;43.10;;;;;;20496;6920;118207;-86
2022/07/11 00:52:39;;;;;;;2.23;1.47;;;19.20;43.10;;;;;;20515;6920;119023;-86
2022/07/11 00:55:05;;;;;;;1.70;1.60;;;19.00;43.40;;;;;;20302;6920;305252;-85
2022/07/11 00:57:30;;;;;;;1.63;1.53;;;19.20;44.00;;;;;;20507;6920;120149;-86
2022/07/11 00:59:56;;;;;;;2.05;1.52;;;19.10;43.60;;;;;;20305;6920;313573;-86
2022/07/11 01:02:21;;;;;;;1.77;1.43;;;19.30;43.50;;;;;;20492;6920;119690;-86
2022/07/11 01:04:47;;;;;;;1.90;1.60;;;19.10;43.30;;;;;;20315;6920;283725;-86
2022/07/11 01:07:13;;;;;;;2.00;1.33;;;19.30;43.80;;;;;;20519;6920;122811;-85
2022/07/11 01:09:38;;;;;;;1.35;1.33;;;19.10;43.60;;;;;;20511;6920;119721;-85
2022/07/11 01:12:05;;;;;;;2.50;1.52;;;18.80;43.90;;;;;;20493;6920;121760;-86
2022/07/11 01:14:32;;;;;;;2.17;1.20;;;18.40;44.40;;;;;;20518;6920;118131;-87
2022/07/11 01:16:57;;;;;;;1.70;1.60;;;18.50;44.50;;;;;;20303;6920;310711;-86
2022/07/11 01:19:23;;;;;;;2.57;1.50;;;18.60;44.40;;;;;;20515;6920;120326;-84
2022/07/11 01:21:49;;;;;;;1.55;1.45;;;18.80;44.20;;;;;;20303;6920;281354;-84
2022/07/11 01:24:15;;;;;;;2.33;1.60;;;18.80;44.20;;;;;;20485;6920;119226;-84
2022/07/11 01:26:41;;;;;;;2.67;1.62;;;18.40;44.50;;;;;;20529;6920;117058;-84
2022/07/11 01:29:10;;;;;;;2.33;1.80;;;18.40;44.50;;;;;;20516;6920;117764;-84
2022/07/11 01:31:38;;;;;;;2.77;1.90;;;18.20;44.90;;;;;;20299;6920;286314;-83
2022/07/11 01:34:04;;;;;;;1.73;1.70;;;18.40;45.30;;;;;;20494;6920;118327;-85
2022/07/11 01:36:29;;;;;;;3.00;1.90;;;18.40;45.20;;;;;;20299;6920;311148;-85
2022/07/11 01:38:55;;;;;;;2.47;1.95;;;18.50;45.40;;;;;;20310;6918;310712;-85
2022/07/11 01:41:21;;;;;;;3.28;1.80;;;18.70;45.00;;;;;;20520;6920;117968;-85
2022/07/11 01:43:46;;;;;;;2.10;1.90;;;18.60;44.90;;;;;;20308;6920;310592;-85
2022/07/11 01:46:12;;;;;;;4.27;1.90;;;18.70;45.30;;;;;;20284;6920;311158;-85
2022/07/11 01:48:37;;;;;;;2.05;1.95;;;18.90;45.00;;;;;;20304;6920;311224;-85
2022/07/11 01:51:03;;;;;;;2.20;2.00;;;19.00;44.70;;;;;;20295;6920;281012;-85
2022/07/11 01:53:29;;;;;;;2.25;2.15;;;19.10;44.60;;;;;;20517;6920;118034;-86
2022/07/11 01:55:54;;;;;;;2.20;2.10;;;18.80;44.80;;;;;;20513;6920;120732;-85
2022/07/11 01:58:20;;;;;;;2.72;2.00;;;18.40;45.20;;;;;;20502;6920;117657;-85
2022/07/11 02:00:46;;;;;;;2.13;2.00;;;17.90;46.00;;;;;;20517;6920;119492;-85
2022/07/11 02:03:12;;;;;;;2.03;1.90;;;17.90;46.00;;;;;;20306;6920;340380;-85
2022/07/11 02:05:40;;;;;;;3.90;2.30;;;18.00;46.50;;;;;;20519;6920;116799;-86
2022/07/11 02:08:14;;;;;;;2.07;1.80;;;18.00;46.30;;;;;;20478;6920;119799;-85
2022/07/11 02:10:46;;;;;;;2.40;2.20;;;17.80;46.40;;;;;;20298;6920;311188;-85
2022/07/11 02:13:12;;;;;;;2.07;1.80;;;18.10;46.70;;;;;;20505;6920;118997;-85
2022/07/11 02:15:39;;;;;;;2.30;2.10;;;18.00;46.40;;;;;;20298;6920;340549;-86
2022/07/11 02:18:05;;;;;;;2.20;2.10;;;18.50;46.20;;;;;;20296;6920;281030;-85
2022/07/11 02:20:31;;;;;;;2.20;2.00;;;18.70;45.80;;;;;;20305;6920;281325;-85
2022/07/11 02:22:58;;;;;;;2.40;1.92;;;18.70;45.80;;;;;;20292;6920;341303;-86
2022/07/11 02:25:22;;;;;;;2.37;2.17;;;18.80;45.20;;;;;;20304;6920;340400;-86
2022/07/11 02:27:48;;;;;;;2.40;2.20;;;18.90;45.00;;;;;;20305;6920;311171;-85
2022/07/11 02:30:13;;;;;;;2.53;2.03;;;18.90;45.00;;;;;;20500;6920;120781;-85
2022/07/11 02:32:39;;;;;;;2.15;2.05;;;18.70;45.20;;;;;;20314;6920;282668;-85
2022/07/11 02:35:05;;;;;;;2.60;2.40;;;18.60;45.60;;;;;;20262;6920;311277;-85
2022/07/11 02:37:31;;;;;;;2.30;2.20;;;18.70;45.40;;;;;;20509;6920;117922;-85
2022/07/11 02:39:56;;;;;;;3.00;2.37;;;18.50;45.60;;;;;;20300;6920;328304;-88
2022/07/11 02:42:22;;;;;;;2.30;2.10;;;18.30;45.90;;;;;;20486;6920;188896;-87
2022/07/11 02:44:48;;;;;;;2.23;2.03;;;18.30;45.90;;;;;;20519;6920;117757;-85
2022/07/11 02:47:17;;;;;;;2.17;2.00;;;18.00;46.20;;;;;;20320;6920;310283;-85
2022/07/11 02:49:43;;;;;;;2.40;2.20;;;18.30;46.10;;;;;;20316;6918;314482;-86
2022/07/11 02:52:09;;;;;;;2.15;2.03;;;18.30;46.10;;;;;;20285;6920;314039;-85
2022/07/11 02:54:34;;;;;;;2.20;2.10;;;18.50;45.90;;;;;;20309;6920;311610;-85
2022/07/11 02:57:00;;;;;;;2.17;1.90;;;18.60;45.50;;;;;;20526;6920;118907;-85
2022/07/11 02:59:25;;;;;;;3.20;2.07;;;18.40;45.60;;;;;;20313;6920;312096;-85
2022/07/11 03:01:52;;;;;;;2.10;2.00;;;18.20;46.60;;;;;;20527;6920;119073;-86
2022/07/11 03:04:17;;;;;;;2.47;1.90;;;18.10;46.00;;;;;;20513;6920;118607;-85
2022/07/11 03:06:43;;;;;;;2.03;1.75;;;17.90;46.50;;;;;;20535;6920;120001;-85
2022/07/11 03:09:09;;;;;;;2.33;2.10;;;17.40;47.10;;;;;;20528;6920;118444;-85
2022/07/11 03:11:35;;;;;;;3.28;2.30;;;17.40;47.10;;;;;;20307;6920;335108;-85
2022/07/11 03:14:02;;;;;;;3.03;2.27;;;17.70;47.20;;;;;;20315;6920;312265;-85
2022/07/11 03:16:29;;;;;;;2.33;2.13;;;18.30;45.90;;;;;;20312;6920;311128;-85
2022/07/11 03:18:54;;;;;;;2.20;2.10;;;18.30;46.20;;;;;;20311;6920;309194;-85
2022/07/11 03:21:20;;;;;;;2.30;2.10;;;18.50;45.90;;;;;;20306;6920;311587;-85
2022/07/11 03:23:45;;;;;;;3.20;2.15;;;18.60;45.90;;;;;;20320;6920;284555;-85
2022/07/11 03:26:11;;;;;;;2.03;1.92;;;18.70;45.30;;;;;;20493;6920;120498;-85
2022/07/11 03:28:37;;;;;;;2.53;2.20;;;18.50;45.60;;;;;;20322;6920;340942;-85
2022/07/11 03:31:02;;;;;;;2.85;2.30;;;18.40;45.80;;;;;;20314;6920;312389;-85
2022/07/11 03:33:28;;;;;;;2.13;2.00;;;18.50;45.70;;;;;;20529;6920;118966;-85
2022/07/11 03:35:53;;;;;;;2.05;1.92;;;18.30;45.80;;;;;;20316;6920;282157;-85
2022/07/11 03:38:19;;;;;;;2.57;2.20;;;18.30;45.90;;;;;;20289;6920;311211;-85
2022/07/11 03:40:45;;;;;;;2.03;1.92;;;18.50;45.60;;;;;;20521;6920;117797;-85
2022/07/11 03:43:10;;;;;;;2.60;2.40;;;18.30;45.70;;;;;;20310;6920;313941;-85
2022/07/11 03:45:36;;;;;;;2.20;1.98;;;18.30;46.00;;;;;;20532;6920;120330;-89
2022/07/11 03:48:03;;;;;;;2.13;2.03;;;18.10;46.00;;;;;;20530;6920;118677;-88
2022/07/11 03:50:29;;;;;;;2.20;2.00;;;17.80;46.40;;;;;;20521;6920;118061;-89
2022/07/11 03:52:54;;;;;;;2.20;2.10;;;17.60;46.70;;;;;;20315;6920;340840;-88
2022/07/11 03:55:20;;;;;;;2.33;2.13;;;17.70;46.90;;;;;;20314;6920;315499;-88
2022/07/11 03:57:45;;;;;;;2.27;2.17;;;18.10;46.40;;;;;;20523;6920;117866;-88
2022/07/11 04:00:11;;;;;;;2.50;2.30;;;18.00;46.30;;;;;;20288;6920;301305;-89
2022/07/11 04:02:36;;;;;;;2.27;2.17;;;18.00;46.10;;;;;;20527;6919;118980;-90
2022/07/11 04:05:03;;;;;;;2.47;2.28;;;17.70;46.60;;;;;;20529;6920;118096;-90
2022/07/11 04:07:28;;;;;;;2.83;2.00;;;17.70;46.60;;;;;;20519;6920;118938;-89
2022/07/11 04:09:55;;;;;;;2.33;2.22;;;17.40;47.10;;;;;;20528;6920;117483;-88
2022/07/11 04:12:22;;;;;;;2.23;2.13;;;17.40;47.10;;;;;;20497;6920;120184;-88
2022/07/11 04:14:47;;;;;;;2.90;2.10;;;17.30;47.20;;;;;;20514;6920;117703;-88
2022/07/11 04:17:13;;;;;;;2.42;2.20;;;17.20;47.30;;;;;;20311;6920;281023;-88
2022/07/11 04:19:38;;;;;;;2.10;2.00;;;17.60;47.50;;;;;;20527;6920;117392;-90
2022/07/11 04:22:04;;;;;;;2.50;2.30;;;17.60;46.90;;;;;;20287;6920;281510;-89
2022/07/11 04:24:29;;;;;;;2.25;2.15;;;17.90;46.60;;;;;;20559;6920;119207;-92
2022/07/11 04:26:55;;;;;;;2.35;2.15;;;17.90;46.40;;;;;;20583;6920;117461;-91
2022/07/11 04:29:20;;;;;;;2.57;2.10;;;17.70;46.60;;;;;;20541;6920;118056;-89
2022/07/11 04:31:46;;;;;;;2.60;2.40;;;17.50;46.80;;;;;;20312;6920;311551;-89
2022/07/11 04:34:13;;;;;;;2.50;2.30;;;17.80;46.80;;;;;;20298;6920;281890;-89
2022/07/11 04:36:37;;;;;;;3.17;2.60;;;18.10;45.80;;;;;;20313;6920;310624;-89
2022/07/11 04:39:03;;;;;;;2.40;2.20;;;18.40;45.20;;;;;;20535;6920;117724;-89
2022/07/11 04:41:28;;;;;;;2.43;2.20;;;18.30;45.40;;;;;;20309;6920;311121;-90
2022/07/11 04:43:54;;;;;;;2.22;2.12;;;18.40;45.40;;;;;;20528;6920;118990;-88
2022/07/11 04:46:19;;;;;;;2.50;2.10;;;18.20;45.50;;;;;;20306;6920;285558;-88
2022/07/11 04:48:46;;;;;;;2.30;2.10;;;18.30;45.80;;;;;;20536;6920;119583;-88
2022/07/11 04:51:11;;;;;;;2.43;2.10;;;18.20;45.70;;;;;;20518;6920;117881;-89
2022/07/11 04:53:37;;;;;;;3.47;2.12;;;18.10;46.10;;;;;;20530;6920;120658;-90
2022/07/11 04:56:03;;;;;;;2.50;2.40;;;17.90;46.40;;;;;;20303;6920;310604;-91
2022/07/11 04:58:32;;;;;;;2.40;2.20;;;18.10;46.50;;;;;;20360;6920;118166;-87
2022/07/11 05:00:54;;;;;;;2.40;2.30;;;18.20;46.30;;;;;;20494;6920;119330;-90
2022/07/11 05:03:20;;;;;;;2.30;2.10;;;18.10;46.50;;;;;;20313;6920;281048;-86
2022/07/11 05:05:45;;;;;;;2.62;2.42;;;18.30;46.50;;;;;;20301;6920;312301;-88
2022/07/11 05:08:11;;;;;;;2.50;2.30;;;18.60;45.90;;;;;;20274;6920;311515;-88
2022/07/11 05:10:36;;;;;;;2.70;2.50;;;18.90;45.70;;;;;;20298;6920;310788;-88
2022/07/11 05:13:02;;;;;;;3.20;2.50;;;19.10;45.00;;;;;;20297;6919;346733;-85
2022/07/11 05:15:28;;;;;;;2.53;2.00;;;19.40;44.80;;;;;;20315;6920;281077;-88
2022/07/11 05:17:54;;;;;;;2.10;2.00;;;19.30;45.10;;;;;;20521;6920;118623;-88
2022/07/11 05:20:20;;;;;;;3.60;2.40;;;19.20;45.00;;;;;;20494;6920;118627;-88
2022/07/11 05:22:46;;;;;;;2.30;2.10;;;19.00;45.40;;;;;;20291;6920;310717;-89
2022/07/11 05:25:12;;;;;;;2.03;1.93;;;19.40;45.10;;;;;;20313;6920;284266;-84
2022/07/11 05:27:37;;;;;;;2.60;2.10;;;19.40;44.90;;;;;;20313;6920;308269;-87
2022/07/11 05:30:04;;;;;;;2.20;2.00;;;19.70;44.30;;;;;;20293;6920;286875;-86
2022/07/11 05:32:30;;;;;;;2.58;2.37;;;19.90;43.70;;;;;;20318;6920;310349;-87
2022/07/11 05:34:58;;;;;;;2.10;2.00;;;20.10;43.50;;;;;;20524;6920;120756;-85
2022/07/11 05:37:21;;;;;;;3.60;2.10;;;20.00;44.50;;;;;;20481;6920;118493;-87
2022/07/11 05:39:47;;;;;;;2.37;2.05;;;19.70;44.30;;;;;;20307;6920;310512;-87
2022/07/11 05:42:13;;;;;;;2.40;2.20;;;19.80;44.30;;;;;;20497;6920;119067;-87
2022/07/11 05:44:38;;;;;;;2.40;2.20;;;19.80;44.40;;;;;;20466;6920;120084;-90
2022/07/11 05:47:03;;;;;;;2.90;2.40;;;19.60;44.40;;;;;;20495;6920;119857;-84
2022/07/11 05:49:30;;;;;;;3.43;2.50;;;19.60;44.60;;;;;;20290;6920;282892;-86
2022/07/11 05:51:55;;;;;;;2.63;2.43;;;19.60;44.60;;;;;;20274;6920;313130;-85
2022/07/11 05:54:21;;;;;;;1.80;1.62;;;20.00;43.80;;;;;;20510;6920;146412;-86
2022/07/11 05:56:47;;;;;;;4.57;2.28;;;20.00;44.00;;;;;;20527;6920;120499;-86
2022/07/11 05:59:13;;;;;;;4.12;2.08;;;19.90;44.30;;;;;;20308;6920;281321;-87
2022/07/11 06:01:38;;;;;;;2.08;1.87;;;20.20;43.00;;;;;;20304;6920;281342;-87
2022/07/11 06:04:05;;;;;;;2.50;2.10;;;21.10;41.70;;;;;;20287;6920;309589;-86
2022/07/11 06:06:32;;;;;;;1.90;1.80;;;21.00;41.90;;;;;;20525;6920;119255;-86
2022/07/11 06:08:58;;;;;;;3.27;2.20;;;21.00;41.80;;;;;;20305;6920;285289;-86
2022/07/11 06:11:25;;;;;;;3.70;1.80;;;21.10;41.70;;;;;;20514;6920;117686;-86
2022/07/11 06:13:50;;;;;;;2.07;1.97;;;21.00;41.60;;;;;;20518;6920;117952;-85
2022/07/11 06:16:16;;;;;;;3.70;2.35;;;20.90;42.00;;;;;;20295;6920;313922;-87
2022/07/11 06:18:41;;;;;;;1.97;1.87;;;21.10;41.60;;;;;;20518;6920;122213;-85
2022/07/11 06:21:07;;;;;;;3.90;2.20;;;21.10;41.70;;;;;;20302;6920;310744;-87
2022/07/11 06:23:37;;;;;;;2.12;1.92;;;21.50;41.40;;;;;;20527;6920;120856;-89
2022/07/11 06:26:02;;;;;;;2.50;1.80;;;21.60;41.50;;;;;;20521;6919;117637;-85
2022/07/11 06:28:29;;;;;;;2.50;2.20;;;21.70;41.70;;;;;;20525;6920;118310;-90
2022/07/11 06:30:56;;;;;;;2.20;2.00;;;21.90;42.30;;;;;;20509;6920;117706;-89
2022/07/11 06:33:21;;;;;;;2.27;1.87;;;21.80;41.90;;;;;;20522;6920;118759;-85
2022/07/11 06:35:47;;;;;;;2.50;1.75;;;22.20;42.00;;;;;;20530;6920;118026;-88
2022/07/11 06:38:13;;;;;;;3.05;2.00;;;22.60;42.00;;;;;;20283;6920;312650;-87
2022/07/11 06:40:38;;;;;;;2.30;2.10;;;23.50;40.10;;;;;;20304;6920;318992;-87
2022/07/11 06:43:04;;;;;;;3.83;2.22;;;24.60;38.30;;;;;;20296;6920;310370;-88
2022/07/11 06:45:29;;;;;;;2.65;1.95;;;25.40;37.50;;;;;;20312;6920;283328;-87
2022/07/11 06:47:55;;;;;;;5.72;2.40;;;26.00;36.70;;;;;;20324;6920;333768;-88
2022/07/11 06:50:20;;;;;;;4.50;1.90;;;26.50;35.50;;;;;;20512;6920;117910;-87
2022/07/11 06:52:47;;;;;;;2.97;1.80;;;26.60;36.00;;;;;;20325;6920;283875;-87
2022/07/11 06:55:12;;;;;;;2.75;2.42;;;27.00;35.10;;;;;;20520;6920;118694;-89
2022/07/11 06:57:38;;;;;;;4.17;2.53;;;26.90;35.10;;;;;;20528;6920;119270;-88
2022/07/11 07:00:04;;;;;;;5.10;2.60;;;26.80;35.60;;;;;;20495;6920;117736;-87
2022/07/11 07:02:30;;;;;;;3.33;2.50;;;26.80;35.80;;;;;;20310;6920;280916;-87
2022/07/11 07:04:55;;;;;;;2.83;2.63;;;27.10;34.70;;;;;;20311;6920;310770;-88
2022/07/11 07:07:21;;;;;;;3.00;2.80;;;28.00;33.40;;;;;;20323;6920;313526;-88
2022/07/11 07:09:47;;;;;;;3.00;2.70;;;28.00;33.40;;;;;;20317;6920;281519;-88
2022/07/11 07:12:12;;;;;;;3.30;3.00;;;28.30;33.10;;;;;;20293;6920;311141;-88
2022/07/11 07:14:38;;;;;;;3.33;2.60;;;28.50;32.80;;;;;;20513;6920;118340;-88
2022/07/11 07:17:05;;;;;;;2.85;2.65;;;28.30;33.30;;;;;;20309;6920;281275;-89
2022/07/11 07:19:30;;;;;;;3.00;2.42;;;28.40;32.90;;;;;;20304;6920;344218;-85
2022/07/11 07:21:55;;;;;;;3.10;2.30;;;28.50;32.70;;;;;;20315;6920;282880;-87
2022/07/11 07:24:21;;;;;;;3.17;2.20;;;28.50;33.20;;;;;;20300;6920;281478;-88
2022/07/11 07:26:47;;;;;;;3.85;2.33;;;28.40;32.60;;;;;;20311;6920;310686;-87
2022/07/11 07:29:12;;;;;;;3.12;2.30;;;28.30;33.00;;;;;;20529;6920;120052;-87
2022/07/11 07:31:37;;;;;;;2.95;2.17;;;27.90;33.60;;;;;;20526;6920;117725;-88
2022/07/11 07:34:04;;;;;;;2.75;2.55;;;27.40;34.40;;;;;;20314;6920;311601;-90
2022/07/11 07:36:29;;;;;;;2.80;2.33;;;27.40;34.60;;;;;;20366;6920;117966;-85
2022/07/11 07:38:55;;;;;;;2.70;2.25;;;27.30;34.80;;;;;;20318;6920;281424;-89
2022/07/11 07:41:21;;;;;;;2.80;2.40;;;27.30;35.00;;;;;;20304;6920;280503;-85
2022/07/11 07:43:48;;;;;;;2.20;2.10;;;27.50;34.80;;;;;;20528;6920;117777;-88
2022/07/11 07:46:12;;;;;;;2.10;2.00;;;27.40;35.00;;;;;;20487;6920;141094;-89
2022/07/11 07:48:38;;;;;;;2.25;2.15;;;27.20;35.30;;;;;;20521;6920;118138;-87
2022/07/11 07:51:03;;;;;;;2.75;2.62;;;27.10;35.60;;;;;;20532;6920;117816;-83
2022/07/11 07:53:29;;;;;;;2.70;2.50;;;27.20;35.60;;;;;;20544;6920;117991;-87
2022/07/11 07:55:54;;;;;;;2.57;2.47;;;27.10;35.40;;;;;;20328;6920;281060;-85
2022/07/11 07:58:20;;;;;;;3.40;2.47;;;27.40;34.80;;;;;;20315;6920;310291;-88
2022/07/11 08:03:31;;;;;;;2.50;2.40;;;27.90;34.30;;;;;;20320;6920;313890;-89
2022/07/11 08:05:58;;;;;;;2.75;2.42;;;28.00;34.10;;;;;;20315;6920;282060;-88
2022/07/11 08:08:24;;;;;;;2.50;2.30;;;28.00;34.00;;;;;;20508;6920;117981;-88
2022/07/11 08:10:51;;;;;;;2.42;2.22;;;28.00;34.10;;;;;;20309;6920;310636;-89
2022/07/11 08:13:16;;;;;;;2.60;2.40;;;28.10;34.20;;;;;;20314;6920;280992;-89
2022/07/11 08:15:42;;;;;;;2.10;2.00;;;28.60;33.70;;;;;;20310;6920;313413;-86
2022/07/11 08:18:07;;;;;;;2.30;2.20;;;28.50;33.60;;;;;;20483;6920;120207;-84
2022/07/11 08:20:33;;;;;;;2.20;2.10;;;28.40;33.70;;;;;;20299;6920;338150;-86
2022/07/11 08:23:03;;;;;;;3.30;2.20;;;28.50;33.00;;;;;;20537;6920;118264;-89
2022/07/11 08:25:28;;;;;;;2.17;2.07;;;28.40;33.40;;;;;;20529;6920;117879;-88
2022/07/11 08:27:54;;;;;;;3.10;1.80;;;28.10;33.80;;;;;;20321;6920;311610;-89
2022/07/11 08:30:20;;;;;;;2.50;2.25;;;28.20;34.00;;;;;;20289;6920;290752;-88
2022/07/11 08:32:46;;;;;;;2.30;2.10;;;28.40;33.90;;;;;;20519;6920;119450;-89
2022/07/11 08:35:11;;;;;;;3.22;1.80;;;28.20;34.00;;;;;;20524;6920;118200;-91
2022/07/11 08:37:37;;;;;;;1.67;1.58;;;28.00;34.30;;;;;;20525;6920;121099;-88
2022/07/11 08:40:03;;;;;;;2.17;2.07;;;27.80;34.70;;;;;;20518;6920;119211;-89
2022/07/11 08:42:28;;;;;;;1.80;1.70;;;27.60;34.90;;;;;;20292;6920;281141;-89
2022/07/11 08:44:54;;;;;;;2.85;1.50;;;27.80;35.00;;;;;;20522;6920;118922;-89
2022/07/11 08:47:19;;;;;;;1.70;1.60;;;27.90;35.10;;;;;;20311;6918;315420;-89
2022/07/11 08:49:45;;;;;;;1.17;1.05;;;28.10;34.70;;;;;;20537;6920;118329;-90
2022/07/11 08:52:10;;;;;;;1.53;1.30;;;28.30;34.50;;;;;;20297;6920;310324;-90
2022/07/11 08:54:36;;;;;;;1.37;1.27;;;28.50;33.40;;;;;;20316;6920;310720;-89
2022/07/11 08:57:02;;;;;;;1.53;1.43;;;28.80;34.10;;;;;;20529;6920;118897;-89
2022/07/11 08:59:27;;;;;;;1.10;1.10;;;28.80;33.50;;;;;;20316;6920;280839;-90
2022/07/11 09:01:54;;;;;;;0.93;0.50;;;28.90;33.80;;;;;;20517;6920;117603;-90
2022/07/11 09:04:20;;;;;;;1.47;0.60;;;29.00;33.30;;;;;;20295;6920;310200;-88
2022/07/11 09:06:45;;;;;;;0.50;0.50;;;29.00;30.80;;;;;;20308;6920;284734;-90
2022/07/11 09:09:11;;;;;;;0.50;0.50;;;29.20;30.20;;;;;;20514;6920;118980;-89
2022/07/11 09:11:51;;;;;;;0.45;0.45;;;29.10;30.20;;;;;;20313;6920;310560;-88
2022/07/11 09:14:20;;;;;;;0.40;0.40;;;29.10;30.20;;;;;;20485;6920;121752;-89
2022/07/11 09:16:56;;;;;;;0.50;0.50;;;29.10;30.90;;;;;;20298;6920;295702;-89
2022/07/11 09:19:25;;;;;;;0.50;0.50;;;29.30;29.30;;;;;;20518;6920;117731;-88
2022/07/11 09:27:40;;;;;;;1.00;0.60;;;29.30;31.10;;;;;;20300;6920;342107;-90
2022/07/11 09:30:22;;;;;;;1.00;0.40;;;29.30;31.10;;;;;;20471;6920;120399;-89
2022/07/11 09:32:55;;;;;;;0.60;0.40;;;29.40;29.80;;;;;;20307;6920;310570;-88
2022/07/11 09:35:24;;;;;;;1.80;0.60;;;29.40;29.80;;;;;;20300;6920;280952;-89
2022/07/11 09:37:49;;;;;;;1.00;0.60;;;29.40;29.60;;;;;;20310;6920;310398;-89
2022/07/11 09:40:15;;;;;;;0.50;0.50;;;29.30;30.00;;;;;;20296;6920;340127;-89
2022/07/11 09:42:50;;;;;;;0.50;0.50;;;29.30;29.90;;;;;;20531;6920;117857;-89
2022/07/11 09:45:16;;;;;;;0.50;0.50;;;29.10;30.30;;;;;;20517;6920;118098;-89
2022/07/11 09:47:44;;;;;;;0.50;0.50;;;28.80;30.50;;;;;;20530;6920;118936;-90
2022/07/11 09:50:10;;;;;;;0.30;0.30;;;28.60;30.80;;;;;;20501;6920;129454;-89
2022/07/11 09:52:35;;;;;;;0.50;0.50;;;28.50;30.90;;;;;;20321;6920;280611;-89
2022/07/11 09:55:02;;;;;;;0.50;0.50;;;29.00;29.80;;;;;;20329;6920;310442;-90
2022/07/11 09:57:34;;;;;;;0.40;0.40;;;29.00;29.80;;;;;;20324;6920;280065;-89
2022/07/11 10:00:00;;;;;;;0.70;0.70;;;29.20;29.20;;;;;;20524;6918;119254;-89
2022/07/11 10:02:26;;;;;;;1.17;0.47;;;28.90;29.90;;;;;;20503;6920;118117;-90
2022/07/11 10:04:52;;;;;;;0.63;0.63;;;28.80;29.90;;;;;;20537;6920;118896;-89
2022/07/11 10:07:17;;;;;;;0.50;0.50;;;28.70;30.40;;;;;;20323;6920;309297;-90
2022/07/11 10:09:43;;;;;;;0.50;0.50;;;29.00;30.50;;;;;;20540;6920;118359;-89
2022/07/11 10:12:09;;;;;;;0.43;0.43;;;29.00;30.00;;;;;;20508;6920;127597;-90
2022/07/11 10:14:38;;;;;;;1.27;0.43;;;28.90;30.20;;;;;;20315;6920;340761;-89
2022/07/11 10:17:13;;;;;;;0.53;0.40;;;29.00;29.40;;;;;;20523;6920;120833;-88
2022/07/11 10:19:39;;;;;;;0.40;0.40;;;29.10;29.70;;;;;;20512;6920;119321;-89
2022/07/11 10:22:11;;;;;;;0.40;0.40;;;29.00;29.90;;;;;;20491;6920;118329;-89
2022/07/11 10:24:40;;;;;;;0.47;0.47;;;29.10;30.20;;;;;;20150;6920;280500;-90
2022/07/11 10:27:29;;;;;;;0.50;0.50;;;29.30;29.60;;;;;;20292;6920;312668;-90
2022/07/11 10:29:55;;;;;;;0.40;0.40;;;29.50;29.40;;;;;;19956;6920;121213;-89
2022/07/11 10:32:20;;;;;;;0.50;0.50;;;29.40;29.50;;;;;;20298;6920;280147;-89
2022/07/11 10:34:49;;;;;;;0.40;0.40;;;29.30;28.80;;;;;;20323;6920;339773;-89
2022/07/11 10:37:12;;;;;;;1.10;0.50;;;29.30;28.90;;;;;;20252;6920;311085;-90
2022/07/11 10:39:38;;;;;;;0.60;0.50;;;29.40;29.90;;;;;;20320;6920;281516;-90
2022/07/11 10:42:03;;;;;;;0.60;0.60;;;29.40;29.90;;;;;;20534;6920;120285;-89
2022/07/11 10:44:29;;;;;;;0.50;0.50;;;29.30;30.00;;;;;;20398;6920;117575;-90
2022/07/11 10:46:54;;;;;;;0.63;0.60;;;29.10;30.00;;;;;;20516;6920;118539;-89
2022/07/11 10:49:33;;;;;;;0.90;0.50;;;29.00;30.20;;;;;;20337;6920;310203;-89
2022/07/11 10:51:59;;;;;;;0.50;0.50;;;29.20;30.60;;;;;;20506;6920;116877;-89
2022/07/11 10:54:41;;;;;;;1.00;0.60;;;29.40;30.60;;;;;;20284;6920;310611;-89
2022/07/11 10:57:31;;;;;;;0.60;0.60;;;29.60;29.80;;;;;;20315;6920;309998;-89
2022/07/11 10:59:57;;;;;;;2.67;0.63;;;29.90;29.30;;;;;;20529;6920;118963;-88
2022/07/11 11:02:24;;;;;;;0.65;0.65;;;29.70;29.50;;;;;;20284;6920;306718;-87
2022/07/11 11:05:02;;;;;;;25.57;2.43;;;29.70;29.60;;;;;;20541;6920;69601;-88
2022/07/11 11:07:33;;;;;;;0.80;0.80;;;29.60;29.80;;;;;;20189;6920;312940;-87
2022/07/11 11:09:59;;;;;;;0.93;0.70;;;29.50;30.00;;;;;;20327;6919;280535;-87
2022/07/11 11:13:04;;;;;;;1.70;0.83;;;29.50;30.00;;;;;;20308;6919;281316;-85
2022/07/11 11:15:43;;;;;;;1.30;1.10;;;29.50;29.80;;;;;;20294;6920;341498;-83
2022/07/11 11:18:25;;;;;;;0.70;0.70;;;29.60;30.20;;;;;;20499;6920;118772;-84
2022/07/11 11:20:47;;;;;;;1.27;0.67;;;29.30;30.30;;;;;;20465;6920;118457;-84
2022/07/11 11:23:13;;;;;;;0.57;0.57;;;28.90;30.60;;;;;;20432;6920;122110;-84
2022/07/11 11:25:39;;;;;;;3.05;1.10;;;28.50;31.30;;;;;;20495;6920;117800;-85
2022/07/11 11:28:05;;;;;;;1.30;0.80;;;28.50;31.30;;;;;;20511;6920;117774;-84
2022/07/11 11:30:34;;;;;;;1.33;0.77;;;28.50;31.30;;;;;;20297;6920;313717;-87
2022/07/11 11:33:02;;;;;;;1.53;1.00;;;28.80;31.20;;;;;;20523;6920;117806;-86
2022/07/11 11:35:28;;;;;;;0.83;0.83;;;28.80;30.80;;;;;;20515;6920;119405;-87
2022/07/11 11:37:54;;;;;;;0.87;0.77;;;28.70;30.80;;;;;;20502;6920;117661;-91
2022/07/11 11:40:22;;;;;;;1.70;0.93;;;28.60;30.80;;;;;;20505;6920;117751;-88
2022/07/11 11:42:46;;;;;;;1.03;0.93;;;28.40;30.90;;;;;;20274;6920;281003;-87
2022/07/11 11:45:12;;;;;;;1.00;1.00;;;28.50;30.80;;;;;;20272;6933;284584;-87
2022/07/11 11:47:38;;;;;;;0.73;0.73;;;28.70;30.60;;;;;;20523;6918;119049;-87
2022/07/11 11:50:04;;;;;;;1.33;0.80;;;28.70;30.30;;;;;;20277;6918;312239;-86
2022/07/11 11:52:29;;;;;;;1.00;0.90;;;28.70;30.80;;;;;;20117;6918;315816;-87
2022/07/11 11:54:55;;;;;;;0.90;0.90;;;28.90;31.10;;;;;;20310;6918;303276;-86
2022/07/11 11:57:21;;;;;;;0.82;0.82;;;29.40;30.60;;;;;;20321;6918;311142;-88
2022/07/11 11:59:47;;;;;;;0.90;0.90;;;29.40;30.60;;;;;;20516;6918;118451;-86
2022/07/11 12:02:12;;;;;;;0.73;0.73;;;29.20;30.30;;;;;;20515;6918;118807;-87
2022/07/11 12:04:41;;;;;;;0.93;0.90;;;28.80;31.70;;;;;;20493;6918;120104;-87
2022/07/11 12:07:07;;;;;;;0.85;0.82;;;28.80;31.40;;;;;;20320;6918;341750;-88
2022/07/11 12:09:55;;;;;;;0.90;0.90;;;28.90;31.10;;;;;;20524;6918;118152;-88
2022/07/11 12:15:06;;;;;;;1.20;1.10;;;28.70;31.00;;;;;;20313;6918;281949;-87
2022/07/11 12:17:31;;;;;;;0.80;0.80;;;28.80;30.70;;;;;;20504;6918;119117;-88
2022/07/11 12:23:24;;;;;;;0.75;0.75;;;28.90;31.70;;;;;;20543;6705;335453;-87
2022/07/11 12:25:58;;;;;;;1.10;0.90;;;29.20;30.30;;;;;;20372;6833;310782;-90
2022/07/11 12:28:34;;;;;;;0.98;0.90;;;29.40;30.70;;;;;;20424;6825;344924;-88
2022/07/11 12:31:09;;;;;;;1.80;1.20;;;29.60;30.10;;;;;;20688;6812;118622;-90
2022/07/11 12:33:52;;;;;;;1.43;1.33;;;29.50;30.60;;;;;;20595;6826;118439;-87
2022/07/11 12:36:33;;;;;;;1.30;1.20;;;29.30;31.20;;;;;;20698;6804;118212;-86
2022/07/11 12:39:09;;;;;;;1.13;1.07;;;29.10;31.10;;;;;;20718;6804;117303;-85
2022/07/11 12:41:45;;;;;;;1.10;1.00;;;28.80;31.10;;;;;;20546;6789;308971;-88
2022/07/11 12:47:23;;;;;;;1.37;1.33;;;29.20;30.50;;;;;;20500;6804;336977;-87
2022/07/11 12:49:57;;;;;;;1.30;1.20;;;29.30;30.00;;;;;;20528;6792;309599;-87
2022/07/11 12:52:40;;;;;;;1.20;1.20;;;29.40;30.80;;;;;;20662;6826;119176;-87